WetterOnline ( https://www.wetteronline.de )

Wetter aktuell Miltenberg

Aktuelles Wetter: Michelstadt-Vielbrunn (455m)

6-stündlich | Neueste Meldungen
Ortszeit Temperatur Wetter
Mo, 22.07. 8:00 17.0° C Sprühregen
Mo, 22.07. 2:00 20.2° C bedeckt
So, 21.07. 20:00 24.2° C bedeckt
So, 21.07. 14:00 25.0° C leicht bewölkt
So, 21.07. 8:00 20.9° C bedeckt
So, 21.07. 2:00 20.9° C wolkenlos
Sa, 20.07. 20:00 27.0° C fast wolkenlos
Sa, 20.07. 14:00 27.1° C leicht bewölkt
Ortszeit Temperatur Wetter
Mo, 22.07. 10:00 18.2° C bewölkt
Mo, 22.07. 9:50 18.2° C bewölkt
Mo, 22.07. 9:40 17.6° C bedeckt
Mo, 22.07. 9:30 16.9° C bedeckt
Mo, 22.07. 9:20 16.9° C bedeckt
Mo, 22.07. 9:10 16.8° C Sprühregen
Mo, 22.07. 9:00 16.6° C leichter Regen
Mo, 22.07. 8:30 17.3° C bedeckt
Mo, 22.07. 8:00 17.0° C Sprühregen
Mo, 22.07. 7:30 17.0° C Regen
Mo, 22.07. 7:00 17.3° C Regen
Ortszeit Relative Feuchte Sichtweite
Mo, 22.07. 8:00 99% 4.3 km
Mo, 22.07. 2:00 81% 40 km
So, 21.07. 20:00 68% 65 km
So, 21.07. 14:00 64% 45 km
So, 21.07. 8:00 77% 40 km
So, 21.07. 2:00 76% 35 km
Sa, 20.07. 20:00 54% 45 km
Sa, 20.07. 14:00 59% 60 km
Ortszeit Relative Feuchte Sichtweite
Mo, 22.07. 10:00 93% 22 km
Mo, 22.07. 9:50 93% -
Mo, 22.07. 9:40 94% -
Mo, 22.07. 9:30 96% 19 km
Mo, 22.07. 9:20 96% -
Mo, 22.07. 9:10 97% -
Mo, 22.07. 9:00 97% 5.0 km
Mo, 22.07. 8:30 99% 5.0 km
Mo, 22.07. 8:00 99% 4.3 km
Mo, 22.07. 7:30 99% 1.5 km
Mo, 22.07. 7:00 97% 3.3 km
Ortszeit Niederschlagsmenge Niederschlagsart
Mo, 22.07. 8:00 6 l/m2 in 12 Std. Regen
Mo, 22.07. 2:00 0.2 l/m2 in 6 Std. Regen
So, 21.07. 20:00 2 l/m2 in 12 Std. -
So, 21.07. 14:00 2 l/m2 in 6 Std. Regen
So, 21.07. 8:00 0.0 l/m2 in 12 Std. -
So, 21.07. 2:00 0.0 l/m2 in 6 Std. -
Sa, 20.07. 20:00 0.0 l/m2 in 12 Std. -
Sa, 20.07. 14:00 0.0 l/m2 in 6 Std. -
Ortszeit Niederschlagsmenge Niederschlagsart
Mo, 22.07. 10:00 0.4 l/m2 in 1 Std. Regen
Mo, 22.07. 9:50 keine Meldung -
Mo, 22.07. 9:40 keine Meldung -
Mo, 22.07. 9:30 0.4 l/m2 in 30 Min Schneeregen
Mo, 22.07. 9:20 keine Meldung -
Mo, 22.07. 9:10 keine Meldung -
Mo, 22.07. 9:00 0.7 l/m2 in 1 Std. Regen
Mo, 22.07. 8:30 <0.05 l/m2 in 30 Min Schnee
Mo, 22.07. 8:00 4.1 l/m2 in 1 Std. Regen
Mo, 22.07. 7:30 3.1 l/m2 in 30 Min -
Mo, 22.07. 7:00 1.4 l/m2 in 1 Std. Regen
Ortszeit Stärke Spitze Richtung
km/h Bft. km/h Grad Sektor
Mo, 22.07. 8:00 4 1 22 290° W
Mo, 22.07. 2:00 6 1 22 260° W
So, 21.07. 20:00 6 1 24 250° W
So, 21.07. 14:00 9 2 20 230° SW
So, 21.07. 8:00 2 1 22 330° NW
So, 21.07. 2:00 7 2 14 150° SO
Sa, 20.07. 20:00 4 1 18 80° O
Sa, 20.07. 14:00 9 2 19 80° O
Ortszeit Stärke Spitze Richtung
km/h Bft. km/h Grad Sektor
Mo, 22.07. 10:00 6 1 17 310° NW
Mo, 22.07. 9:50 6 1 - 310° NW
Mo, 22.07. 9:40 4 1 - 320° NW
Mo, 22.07. 9:30 6 1 17 340° N
Mo, 22.07. 9:20 6 1 - 340° N
Mo, 22.07. 9:10 9 2 - 340° N
Mo, 22.07. 9:00 13 3 19 350° N
Mo, 22.07. 8:30 7 2 14 330° NW
Mo, 22.07. 8:00 4 1 22 290° W
Mo, 22.07. 7:30 4 1 22 300° NW
Mo, 22.07. 7:00 13 3 20 340° N
Ortszeit Untergrenze Bedeckung Gattung
total tief tief mittel hoch
Mo, 22.07. 8:00 90 m 7/8 7/8 - - -
Mo, 22.07. 2:00 660 m 8/8 8/8 - - -
So, 21.07. 20:00 3000 m 8/8 8/8 - - -
So, 21.07. 14:00 840 m 3/8 3/8 - - -
So, 21.07. 8:00 3600 m 8/8 8/8 - - -
So, 21.07. 2:00 - 0/8 0/8 - - -
Sa, 20.07. 20:00 3000 m 1/8 1/8 - - -
Sa, 20.07. 14:00 1800 m 3/8 3/8 - - -
Ortszeit Bedeckungsgrad in Achtel und Wolkenuntergrenze
Mo, 22.07. 10:00 4(510m) 5(870m) 7(990m)
Mo, 22.07. 9:50 4(510m) 5(870m) 7(990m)
Mo, 22.07. 9:40 8
Mo, 22.07. 9:30 1(90m) 4(630m) 8(810m)
Mo, 22.07. 9:20 1(90m) 4(630m) 8(810m)
Mo, 22.07. 9:10 8
Mo, 22.07. 9:00 7(90m) 8(270m)
Mo, 22.07. 8:30 4(90m) 7(330m) 8(750m)
Mo, 22.07. 8:00 7(90m) 7(330m)
Mo, 22.07. 7:30 3(120m) 3(270m) 8(480m)
Mo, 22.07. 7:00 7(90m)
Ortszeit Luftdruck NN (hPa) Tendenz (hPa in 3 Std.)
Mo, 22.07. 8:00 1016 + 1,8
Mo, 22.07. 2:00 1013 + 1,0
So, 21.07. 20:00 1009 + 0,3
So, 21.07. 14:00 1008 - 0,2
So, 21.07. 8:00 1008 + 0,9
So, 21.07. 2:00 1007 - 0,6
Sa, 20.07. 20:00 1007 - 0,9
Sa, 20.07. 14:00 1009 - 1,2
Ortszeit Luftdruck NN (hPa) Tendenz (hPa in 3 Std.)
Mo, 22.07. 10:00 1017 + 1,8
Mo, 22.07. 9:50 1017 keine Meldung
Mo, 22.07. 9:40 1017 keine Meldung
Mo, 22.07. 9:30 1017 + 2,0
Mo, 22.07. 9:20 1017 keine Meldung
Mo, 22.07. 9:10 1017 keine Meldung
Mo, 22.07. 9:00 1016 + 1,8
Mo, 22.07. 8:30 1016 + 1,8
Mo, 22.07. 8:00 1016 + 1,8
Mo, 22.07. 7:30 1015 + 1,6
Mo, 22.07. 7:00 1015 + 1,3
Ortszeit Schneehöhe (cm)
Mo, 22.07. 8:00 0
Mo, 22.07. 2:00 0
So, 21.07. 20:00 0
So, 21.07. 14:00 0
So, 21.07. 8:00 0
So, 21.07. 2:00 0
Sa, 20.07. 20:00 0
Sa, 20.07. 14:00 0
Ortszeit Schneehöhe (cm)
Mo, 22.07. 10:00 0
Mo, 22.07. 9:50 0
Mo, 22.07. 9:40 -
Mo, 22.07. 9:30 0
Mo, 22.07. 9:20 0
Mo, 22.07. 9:10 -
Mo, 22.07. 9:00 0
Mo, 22.07. 8:30 0
Mo, 22.07. 8:00 0
Mo, 22.07. 7:30 0
Mo, 22.07. 7:00 0
Link zu dieser Seite / Seite empfehlen

Das Wetter in ...